Braine-le-Comte, Belgium
Current Conditions -  °F | °C
As of 4:44 AM on Saturday 29 Nov 2014 (Local Time) from EBCV Reporting Station
Clear Clear  
Wind Chill: 33°   Ceiling: Unl
Heat Index: 37°   Visibility: 1.6mi
Dew Point: 37°   Wind: 6mph
Humidity: 100%   Direction: 90°E
Pressure: 29.83"   Gusts: NA
Location:  50.61°N, 4.15°E
Report Text: EBCV 290344Z AUTO 09005KT 2600 NCD 03/03 Q1010 YLO
Loading
Personal Weather Stations






























Interactive Weather Map New forecast layout! Learn more

10-Day Weather Forecast

Advertisements
Track Severe Weather on mobile